createdAt,value
2018-11-03T00:01:35.343Z,16.07
2018-11-03T00:04:03.867Z,15.90
2018-11-03T00:06:32.173Z,15.37
2018-11-03T00:09:00.495Z,14.70
2018-11-03T00:11:29.087Z,15.47
2018-11-03T00:13:57.485Z,15.43
2018-11-03T00:16:25.933Z,15.80
2018-11-03T00:18:54.434Z,15.00
2018-11-03T00:21:23.345Z,15.33
2018-11-03T00:23:51.669Z,16.37
2018-11-03T00:26:19.953Z,16.47
2018-11-03T00:28:48.218Z,16.73
2018-11-03T00:31:16.665Z,16.03
2018-11-03T00:33:44.917Z,15.60
2018-11-03T00:36:13.272Z,15.07
2018-11-03T00:38:41.542Z,15.60
2018-11-03T00:41:09.859Z,15.33
2018-11-03T00:43:38.129Z,15.87
2018-11-03T00:46:06.440Z,15.40
2018-11-03T00:48:34.811Z,15.27
2018-11-03T00:51:03.089Z,15.33
2018-11-03T00:53:31.428Z,14.93
2018-11-03T00:55:59.776Z,14.73
2018-11-03T00:58:28.049Z,15.50
2018-11-03T01:00:56.355Z,15.97
2018-11-03T01:03:24.629Z,15.57
2018-11-03T01:05:52.922Z,16.80
2018-11-03T01:08:21.205Z,18.13
2018-11-03T01:10:49.488Z,19.20
2018-11-03T01:13:17.761Z,17.70
2018-11-03T01:15:46.017Z,18.20
2018-11-03T01:18:14.315Z,18.57
2018-11-03T01:20:42.606Z,16.93
2018-11-03T01:23:10.905Z,17.63
2018-11-03T01:25:39.290Z,18.60
2018-11-03T01:28:07.578Z,16.30
2018-11-03T01:30:35.897Z,16.20
2018-11-03T01:33:04.333Z,15.83
2018-11-03T01:35:32.630Z,16.63
2018-11-03T01:38:00.889Z,15.30
2018-11-03T01:40:29.419Z,16.13
2018-11-03T01:42:57.709Z,15.90
2018-11-03T01:45:25.980Z,15.53
2018-11-03T01:47:54.266Z,15.70
2018-11-03T01:50:22.543Z,15.47
2018-11-03T01:52:50.821Z,15.27
2018-11-03T01:55:19.093Z,16.60
2018-11-03T01:57:47.368Z,16.47
2018-11-03T02:00:15.654Z,16.83
2018-11-03T02:02:43.936Z,15.30
2018-11-03T02:05:12.238Z,16.37
2018-11-03T02:07:40.876Z,15.80
2018-11-03T02:10:10.321Z,16.67
2018-11-03T02:12:38.618Z,17.13
2018-11-03T02:15:06.923Z,16.63
2018-11-03T02:17:35.216Z,15.73
2018-11-03T02:20:03.486Z,16.27
2018-11-03T02:22:31.742Z,17.63
2018-11-03T02:25:00.030Z,18.37
2018-11-03T02:27:28.327Z,17.63
2018-11-03T02:29:56.617Z,18.20
2018-11-03T02:32:24.903Z,17.80
2018-11-03T02:34:53.196Z,17.73
2018-11-03T02:37:21.482Z,17.60
2018-11-03T02:39:49.762Z,18.67
2018-11-03T02:42:18.042Z,17.37
2018-11-03T02:44:46.322Z,16.73
2018-11-03T02:47:14.617Z,17.07
2018-11-03T02:49:42.910Z,17.17
2018-11-03T02:52:11.197Z,17.27
2018-11-03T02:54:39.515Z,17.20
2018-11-03T02:57:07.802Z,18.20
2018-11-03T02:59:36.076Z,18.57
2018-11-03T03:02:04.932Z,18.60
2018-11-03T03:04:33.221Z,18.93
2018-11-03T03:07:01.487Z,18.23
2018-11-03T03:09:29.762Z,18.67
2018-11-03T03:11:58.034Z,19.27
2018-11-03T03:14:26.334Z,19.27
2018-11-03T03:16:54.601Z,18.70
2018-11-03T03:19:22.881Z,19.73
2018-11-03T03:21:51.166Z,19.60
2018-11-03T03:24:19.484Z,19.27
2018-11-03T03:26:47.766Z,19.13
2018-11-03T03:29:16.044Z,19.93
2018-11-03T03:31:44.337Z,20.03
2018-11-03T03:34:12.737Z,18.90
2018-11-03T03:36:41.020Z,19.60
2018-11-03T03:39:10.188Z,19.93
2018-11-03T03:41:38.696Z,19.70
2018-11-03T03:44:07.013Z,19.63
2018-11-03T03:46:35.458Z,19.43
2018-11-03T03:49:03.720Z,19.23
2018-11-03T03:51:32.013Z,19.63
2018-11-03T03:54:00.449Z,19.70
2018-11-03T03:56:28.734Z,19.60
2018-11-03T03:58:57.042Z,19.37
2018-11-03T04:01:25.316Z,20.07
2018-11-03T04:03:53.607Z,19.47
2018-11-03T04:06:21.889Z,20.43
2018-11-03T04:08:50.182Z,19.83
2018-11-03T04:11:18.443Z,20.00
2018-11-03T04:13:46.749Z,19.63
2018-11-03T04:16:15.177Z,20.07
2018-11-03T04:18:43.714Z,20.37
2018-11-03T04:21:16.250Z,20.13
2018-11-03T04:23:44.670Z,21.20
2018-11-03T04:26:13.033Z,20.90
2018-11-03T04:28:41.336Z,21.13
2018-11-03T04:31:09.609Z,20.10
2018-11-03T04:33:37.895Z,20.37
2018-11-03T04:36:06.174Z,20.80
2018-11-03T04:38:34.505Z,20.83
2018-11-03T04:41:02.859Z,20.60
2018-11-03T04:43:31.105Z,20.63
2018-11-03T04:45:59.378Z,20.13
2018-11-03T04:48:27.638Z,20.50
2018-11-03T04:50:55.926Z,21.87
2018-11-03T04:53:24.210Z,21.37
2018-11-03T04:55:52.501Z,21.13
2018-11-03T04:58:20.758Z,20.83
2018-11-03T05:00:49.073Z,21.90
2018-11-03T05:03:17.359Z,20.60
2018-11-03T05:05:45.625Z,21.60
2018-11-03T05:08:13.911Z,22.77
2018-11-03T05:10:42.185Z,22.30
2018-11-03T05:13:10.455Z,22.13
2018-11-03T05:15:38.737Z,23.03
2018-11-03T05:18:07.025Z,23.07
2018-11-03T05:20:35.337Z,23.17
2018-11-03T05:23:03.633Z,22.93
2018-11-03T05:25:31.890Z,22.60
2018-11-03T05:28:00.188Z,22.83
2018-11-03T05:30:28.456Z,23.90
2018-11-03T05:32:57.117Z,23.53
2018-11-03T05:35:25.417Z,23.53
2018-11-03T05:37:53.703Z,23.47
2018-11-03T05:40:21.965Z,22.67
2018-11-03T05:42:50.241Z,22.13
2018-11-03T05:45:18.521Z,23.30
2018-11-03T05:47:46.812Z,23.13
2018-11-03T05:50:15.106Z,23.00
2018-11-03T05:52:43.367Z,21.37
2018-11-03T05:55:11.647Z,21.37
2018-11-03T05:57:39.957Z,21.80
2018-11-03T06:00:09.386Z,21.90
2018-11-03T06:02:37.677Z,21.47
2018-11-03T06:05:06.406Z,22.03
2018-11-03T06:07:34.674Z,21.53
2018-11-03T06:10:02.969Z,22.50
2018-11-03T06:12:31.230Z,22.63
2018-11-03T06:14:59.566Z,23.33
2018-11-03T06:17:27.897Z,22.80
2018-11-03T06:19:56.165Z,21.87
2018-11-03T06:22:24.514Z,22.80
2018-11-03T06:24:52.782Z,22.67
2018-11-03T06:27:21.093Z,22.27
2018-11-03T06:29:49.373Z,22.17
2018-11-03T06:32:17.731Z,22.40
2018-11-03T06:34:46.011Z,22.30
2018-11-03T06:37:14.311Z,21.47
2018-11-03T06:39:42.870Z,22.43
2018-11-03T06:42:11.977Z,22.73
2018-11-03T06:44:40.342Z,21.67
2018-11-03T06:47:08.633Z,20.47
2018-11-03T06:49:36.923Z,21.07
2018-11-03T06:52:05.477Z,22.07
2018-11-03T06:54:33.805Z,22.13
2018-11-03T06:57:02.147Z,21.00
2018-11-03T06:59:30.499Z,21.90
2018-11-03T07:01:58.761Z,21.17
2018-11-03T07:04:27.082Z,21.97
2018-11-03T07:06:55.377Z,21.23
2018-11-03T07:09:23.666Z,22.67
2018-11-03T07:11:52.023Z,21.00
2018-11-03T07:14:20.342Z,22.60
2018-11-03T07:16:48.619Z,21.67
2018-11-03T07:19:16.897Z,20.47
2018-11-03T07:21:45.272Z,20.77
2018-11-03T07:24:13.672Z,20.97
2018-11-03T07:26:41.977Z,20.03
2018-11-03T07:29:10.445Z,20.23
2018-11-03T07:31:38.701Z,20.60
2018-11-03T07:34:07.173Z,20.43
2018-11-03T07:36:35.462Z,20.93
2018-11-03T07:39:04.090Z,20.07
2018-11-03T07:41:32.442Z,18.83
2018-11-03T07:44:00.695Z,19.77
2018-11-03T07:46:29.019Z,19.20
2018-11-03T07:48:57.381Z,19.70
2018-11-03T07:51:25.597Z,18.33
2018-11-03T07:53:53.880Z,18.57
2018-11-03T07:56:22.145Z,19.67
2018-11-03T07:58:50.478Z,19.10
2018-11-03T08:01:18.807Z,19.27
2018-11-03T08:03:47.094Z,19.63
2018-11-03T08:06:15.381Z,19.20
2018-11-03T08:08:43.744Z,18.70
2018-11-03T08:11:12.034Z,19.53
2018-11-03T08:13:40.375Z,19.07
2018-11-03T08:16:08.729Z,19.33
2018-11-03T08:18:37.036Z,18.30
2018-11-03T08:21:05.381Z,17.70
2018-11-03T08:23:33.673Z,18.50
2018-11-03T08:26:01.929Z,18.33
2018-11-03T08:28:30.293Z,18.87
2018-11-03T08:30:58.628Z,19.47
2018-11-03T08:33:26.945Z,18.30
2018-11-03T08:35:55.205Z,19.23
2018-11-03T08:38:23.529Z,19.47
2018-11-03T08:40:51.838Z,20.47
2018-11-03T08:43:20.149Z,18.13
2018-11-03T08:45:48.445Z,18.37
2018-11-03T08:48:16.760Z,18.43
2018-11-03T08:50:45.029Z,19.13
2018-11-03T08:53:13.366Z,18.67
2018-11-03T08:55:41.697Z,17.27
2018-11-03T08:58:09.953Z,16.90
2018-11-03T09:00:38.245Z,18.53
2018-11-03T09:03:06.578Z,18.77
2018-11-03T09:05:34.926Z,19.13
2018-11-03T09:08:03.221Z,19.33
2018-11-03T09:10:31.536Z,18.17
2018-11-03T09:12:59.857Z,17.63
2018-11-03T09:15:28.137Z,18.13
2018-11-03T09:17:56.472Z,18.03
2018-11-03T09:20:24.818Z,18.17
2018-11-03T09:22:53.164Z,18.53
2018-11-03T09:25:21.473Z,18.80
2018-11-03T09:27:49.774Z,19.87
2018-11-03T09:30:19.140Z,19.97
2018-11-03T09:32:47.409Z,20.43
2018-11-03T09:35:16.411Z,20.27
2018-11-03T09:37:44.693Z,20.50
2018-11-03T09:40:14.385Z,19.83
2018-11-03T09:42:43.782Z,20.57
2018-11-03T09:45:12.697Z,21.50
2018-11-03T09:47:41.346Z,19.73
2018-11-03T09:50:11.377Z,20.70
2018-11-03T09:52:39.970Z,19.20
2018-11-03T09:55:10.247Z,18.13
2018-11-03T09:57:38.565Z,20.07
2018-11-03T10:00:09.591Z,17.37
2018-11-03T10:02:38.379Z,16.73
2018-11-03T10:05:07.386Z,15.27
2018-11-03T10:07:35.874Z,12.93
2018-11-03T10:10:04.177Z,12.33
2018-11-03T10:12:32.510Z,12.10
2018-11-03T10:15:00.827Z,11.30
2018-11-03T10:17:29.151Z,10.50
2018-11-03T10:19:57.436Z,10.73
2018-11-03T10:22:25.810Z,10.60
2018-11-03T10:24:54.180Z,12.00
2018-11-03T10:27:22.501Z,11.73
2018-11-03T10:29:50.837Z,11.27
2018-11-03T10:32:19.128Z,18.17
2018-11-03T10:34:47.410Z,11.70
2018-11-03T10:37:15.889Z,8.73
2018-11-03T10:39:44.166Z,8.47
2018-11-03T10:42:12.483Z,9.10
2018-11-03T10:44:40.750Z,8.37
2018-11-03T10:47:09.100Z,7.47
2018-11-03T10:49:41.646Z,7.20
2018-11-03T10:52:10.220Z,6.77
2018-11-03T10:54:38.811Z,7.07
2018-11-03T10:57:07.623Z,7.87
2018-11-03T10:59:35.933Z,7.73
2018-11-03T11:02:09.605Z,6.93
2018-11-03T11:04:43.352Z,7.00
2018-11-03T11:07:17.741Z,6.10
2018-11-03T11:09:51.645Z,5.63
2018-11-03T11:12:25.674Z,6.70
2018-11-03T11:14:53.997Z,7.63
2018-11-03T11:17:22.295Z,6.67
2018-11-03T11:19:50.609Z,6.73
2018-11-03T11:22:19.001Z,6.30
2018-11-03T11:24:47.445Z,6.53
2018-11-03T11:27:15.739Z,6.37
2018-11-03T11:29:44.110Z,6.87
2018-11-03T11:32:12.621Z,7.00
2018-11-03T11:34:42.777Z,6.30
2018-11-03T11:37:11.065Z,5.67
2018-11-03T11:39:39.961Z,6.10
2018-11-03T11:42:12.690Z,5.43
2018-11-03T11:44:42.294Z,6.17
2018-11-03T11:47:11.446Z,6.93
2018-11-03T11:49:39.775Z,5.97
2018-11-03T11:52:08.082Z,5.57
2018-11-03T11:54:36.446Z,6.67
2018-11-03T11:57:04.929Z,6.77
2018-11-03T11:59:33.193Z,6.00
2018-11-03T12:02:01.494Z,6.00
2018-11-03T12:04:29.823Z,5.27
2018-11-03T12:06:58.908Z,5.87
2018-11-03T12:09:27.661Z,5.73
2018-11-03T12:11:56.226Z,5.63
2018-11-03T12:14:24.504Z,5.20
2018-11-03T12:16:52.897Z,5.97
2018-11-03T12:19:21.234Z,5.77
2018-11-03T12:21:49.734Z,6.03
2018-11-03T12:24:19.275Z,6.87
2018-11-03T12:26:47.570Z,5.60
2018-11-03T12:29:15.928Z,4.77
2018-11-03T12:31:44.265Z,5.30
2018-11-03T12:34:12.787Z,5.13
2018-11-03T12:36:41.179Z,4.57
2018-11-03T12:39:10.003Z,4.87
2018-11-03T12:41:38.317Z,4.50
2018-11-03T12:44:06.622Z,3.80
2018-11-03T12:46:34.970Z,4.13
2018-11-03T12:49:03.486Z,4.80
2018-11-03T12:51:31.857Z,5.23
2018-11-03T12:54:00.242Z,5.33
2018-11-03T12:56:28.517Z,4.57
2018-11-03T12:58:56.879Z,4.67
2018-11-03T13:01:25.134Z,4.63
2018-11-03T13:03:53.466Z,5.17
2018-11-03T13:06:21.892Z,7.00
2018-11-03T13:08:50.217Z,5.10
2018-11-03T13:11:18.712Z,4.30
2018-11-03T13:13:47.132Z,4.97
2018-11-03T13:16:15.438Z,4.50
2018-11-03T13:18:44.105Z,4.60
2018-11-03T13:21:12.512Z,4.63
2018-11-03T13:23:41.020Z,5.90
2018-11-03T13:26:09.452Z,4.40
2018-11-03T13:28:37.868Z,4.63
2018-11-03T13:31:06.396Z,5.13
2018-11-03T13:33:34.757Z,6.30
2018-11-03T13:36:04.197Z,5.53
2018-11-03T13:38:32.618Z,5.10
2018-11-03T13:41:01.057Z,4.70
2018-11-03T13:43:29.337Z,4.77
2018-11-03T13:45:58.846Z,4.73
2018-11-03T13:48:27.174Z,4.47
2018-11-03T13:50:55.532Z,4.50
2018-11-03T13:53:23.940Z,3.80
2018-11-03T13:55:53.520Z,4.23
2018-11-03T13:58:21.860Z,4.50
2018-11-03T14:00:50.202Z,5.20
2018-11-03T14:03:18.521Z,4.10
2018-11-03T14:05:46.976Z,4.00
2018-11-03T14:08:15.515Z,4.60
2018-11-03T14:10:43.924Z,4.43
2018-11-03T14:13:12.249Z,4.67
2018-11-03T14:15:40.605Z,4.43
2018-11-03T14:18:08.982Z,3.60
2018-11-03T14:20:37.375Z,3.67
2018-11-03T14:23:06.075Z,3.67
2018-11-03T14:25:34.390Z,3.87
2018-11-03T14:28:02.799Z,3.60
2018-11-03T14:30:31.112Z,4.00
2018-11-03T14:32:59.443Z,3.40
2018-11-03T14:35:27.817Z,4.07
2018-11-03T14:37:56.113Z,4.10
2018-11-03T14:40:24.510Z,3.97
2018-11-03T14:42:52.961Z,3.87
2018-11-03T14:45:21.414Z,3.90
2018-11-03T14:47:49.620Z,4.43
2018-11-03T14:50:17.994Z,4.67
2018-11-03T14:52:46.404Z,4.80
2018-11-03T14:55:14.769Z,4.43
2018-11-03T14:57:43.101Z,4.33
2018-11-03T15:00:14.114Z,5.10
2018-11-03T15:02:42.473Z,6.13
2018-11-03T15:05:11.491Z,5.13
2018-11-03T15:07:39.858Z,5.10
2018-11-03T15:10:08.921Z,4.93
2018-11-03T15:12:37.259Z,5.37
2018-11-03T15:15:06.862Z,5.27
2018-11-03T15:17:35.161Z,5.63
2018-11-03T15:20:03.619Z,5.10
2018-11-03T15:22:31.988Z,4.17
2018-11-03T15:25:00.297Z,5.27
2018-11-03T15:27:28.709Z,5.10
2018-11-03T15:32:34.480Z,4.93
2018-11-03T15:35:02.815Z,5.10
2018-11-03T15:37:31.172Z,5.77
2018-11-03T15:39:59.442Z,4.77
2018-11-03T15:42:27.844Z,5.10
2018-11-03T15:44:56.368Z,5.03
2018-11-03T15:47:24.780Z,5.43
2018-11-03T15:49:53.135Z,6.73
2018-11-03T15:52:21.726Z,5.80
2018-11-03T15:54:50.098Z,5.70
2018-11-03T15:57:18.454Z,4.63
2018-11-03T15:59:46.787Z,5.40
2018-11-03T16:02:15.250Z,5.93
2018-11-03T16:04:43.627Z,5.60
2018-11-03T16:07:11.877Z,6.20
2018-11-03T16:09:40.168Z,6.20
2018-11-03T16:12:08.603Z,5.70
2018-11-03T16:14:36.898Z,6.23
2018-11-03T16:17:05.435Z,6.20
2018-11-03T16:19:33.871Z,7.43
2018-11-03T16:22:02.105Z,6.83
2018-11-03T16:24:30.354Z,7.43
2018-11-03T16:26:58.709Z,6.77
2018-11-03T16:29:27.231Z,7.33
2018-11-03T16:31:55.513Z,6.60
2018-11-03T16:34:24.030Z,6.30
2018-11-03T16:36:52.320Z,6.90
2018-11-03T16:39:20.738Z,6.07
2018-11-03T16:41:49.050Z,6.50
2018-11-03T16:44:17.405Z,6.40
2018-11-03T16:46:45.657Z,7.90
2018-11-03T16:49:17.578Z,7.40
2018-11-03T16:51:45.885Z,7.13
2018-11-03T16:54:14.163Z,6.30
2018-11-03T16:56:42.483Z,5.97
2018-11-03T16:59:10.741Z,7.07
2018-11-03T17:01:39.021Z,6.40
2018-11-03T17:04:07.309Z,6.30
2018-11-03T17:06:35.736Z,6.53
2018-11-03T17:09:05.201Z,6.63
2018-11-03T17:11:33.505Z,6.83
2018-11-03T17:14:01.797Z,7.03
2018-11-03T17:16:30.147Z,7.10
2018-11-03T17:18:58.448Z,7.50
2018-11-03T17:21:26.800Z,8.73
2018-11-03T17:23:55.073Z,7.97
2018-11-03T17:26:23.392Z,7.57
2018-11-03T17:28:51.722Z,47.13
2018-11-03T17:31:20.015Z,8.90
2018-11-03T17:33:48.304Z,7.70
2018-11-03T17:36:16.675Z,7.17
2018-11-03T17:38:45.031Z,7.53
2018-11-03T17:41:13.297Z,8.23
2018-11-03T17:43:41.657Z,7.47
2018-11-03T17:46:09.922Z,7.77
2018-11-03T17:48:38.168Z,8.77
2018-11-03T17:51:06.445Z,8.13
2018-11-03T17:53:34.734Z,8.60
2018-11-03T17:56:03.010Z,9.07
2018-11-03T17:58:31.313Z,8.97
2018-11-03T18:00:59.660Z,9.13
2018-11-03T18:03:27.945Z,8.63
2018-11-03T18:05:56.226Z,9.93
2018-11-03T18:08:24.512Z,9.43
2018-11-03T18:10:52.789Z,10.70
2018-11-03T18:13:21.211Z,11.53
2018-11-03T18:15:49.407Z,11.10
2018-11-03T18:18:17.713Z,12.10
2018-11-03T18:20:45.974Z,14.30
2018-11-03T18:23:14.301Z,12.17
2018-11-03T18:25:42.594Z,11.10
2018-11-03T18:28:10.888Z,10.87
2018-11-03T18:30:39.245Z,11.27
2018-11-03T18:33:07.578Z,11.30
2018-11-03T18:35:35.985Z,11.20
2018-11-03T18:38:04.388Z,11.50
2018-11-03T18:40:32.725Z,10.70
2018-11-03T18:43:01.019Z,11.40
2018-11-03T18:45:29.392Z,11.67
2018-11-03T18:47:57.679Z,12.10
2018-11-03T18:50:25.968Z,11.23
2018-11-03T18:52:54.275Z,12.23
2018-11-03T18:55:22.627Z,13.30
2018-11-03T18:57:50.888Z,12.70
2018-11-03T19:00:19.213Z,13.30
2018-11-03T19:02:47.551Z,12.73
2018-11-03T19:05:15.915Z,12.73
2018-11-03T19:07:44.187Z,12.87
2018-11-03T19:10:12.567Z,11.73
2018-11-03T19:12:40.878Z,10.60
2018-11-03T19:15:10.229Z,10.93
2018-11-03T19:17:38.728Z,12.40
2018-11-03T19:20:15.677Z,12.37
2018-11-03T19:22:44.162Z,12.20
2018-11-03T19:25:13.678Z,12.37
2018-11-03T19:27:42.222Z,11.23
2018-11-03T19:30:13.072Z,10.83
2018-11-03T19:32:42.617Z,12.03
2018-11-03T19:35:10.938Z,12.20
2018-11-03T19:37:39.932Z,11.87
2018-11-03T19:40:09.943Z,12.63
2018-11-03T19:42:38.564Z,13.53
2018-11-03T19:45:06.853Z,11.60
2018-11-03T19:47:35.195Z,11.97
2018-11-03T19:50:03.557Z,12.10
2018-11-03T19:52:31.954Z,12.57
2018-11-03T19:55:00.372Z,13.40
2018-11-03T19:57:28.706Z,12.20
2018-11-03T19:59:57.238Z,12.33
2018-11-03T20:02:29.492Z,12.37
2018-11-03T20:04:57.860Z,11.93
2018-11-03T20:07:26.182Z,12.87
2018-11-03T20:09:54.660Z,13.57
2018-11-03T20:12:22.970Z,13.60
2018-11-03T20:14:51.799Z,12.93
2018-11-03T20:17:20.138Z,13.30
2018-11-03T20:19:48.509Z,13.03
2018-11-03T20:22:16.796Z,13.03
2018-11-03T20:24:45.123Z,13.20
2018-11-03T20:27:13.509Z,13.33
2018-11-03T20:29:41.794Z,12.53
2018-11-03T20:32:10.157Z,12.33
2018-11-03T20:34:38.526Z,11.70
2018-11-03T20:37:07.298Z,11.50
2018-11-03T20:39:35.557Z,10.67
2018-11-03T20:42:04.178Z,11.80
2018-11-03T20:44:32.509Z,11.70
2018-11-03T20:47:00.828Z,12.17
2018-11-03T20:49:29.273Z,13.60
2018-11-03T20:51:58.768Z,11.67
2018-11-03T20:54:27.240Z,12.10
2018-11-03T20:56:55.744Z,12.70
2018-11-03T20:59:24.325Z,11.93
2018-11-03T21:01:52.710Z,12.50
2018-11-03T21:04:21.051Z,11.90
2018-11-03T21:06:49.420Z,12.90
2018-11-03T21:09:17.721Z,13.00
2018-11-03T21:11:46.034Z,12.50
2018-11-03T21:14:14.387Z,13.80
2018-11-03T21:16:42.673Z,12.80
2018-11-03T21:19:11.050Z,27.23
2018-11-03T21:21:39.360Z,16.80
2018-11-03T21:24:07.795Z,13.73
2018-11-03T21:26:36.068Z,13.53
2018-11-03T21:29:04.409Z,13.10
2018-11-03T21:31:32.951Z,13.70
2018-11-03T21:34:01.715Z,12.83
2018-11-03T21:36:29.998Z,14.10
2018-11-03T21:38:58.357Z,14.87
2018-11-03T21:41:26.626Z,13.57
2018-11-03T21:43:58.975Z,14.00
2018-11-03T21:46:27.551Z,14.20
2018-11-03T21:48:56.062Z,14.47
2018-11-03T21:51:24.367Z,13.67
2018-11-03T21:53:53.285Z,13.70
2018-11-03T21:56:21.578Z,15.63
2018-11-03T21:58:49.847Z,14.53
2018-11-03T22:01:18.284Z,14.00
2018-11-03T22:03:46.593Z,13.83
2018-11-03T22:06:14.919Z,13.83
2018-11-03T22:08:43.439Z,14.07
2018-11-03T22:11:11.825Z,14.63
2018-11-03T22:13:40.090Z,15.50
2018-11-03T22:16:08.369Z,42.73
2018-11-03T22:18:36.678Z,18.57
2018-11-03T22:21:05.182Z,15.53
2018-11-03T22:23:33.454Z,14.73
2018-11-03T22:26:01.737Z,13.97
2018-11-03T22:28:30.102Z,14.10
2018-11-03T22:30:58.397Z,14.60
2018-11-03T22:33:26.689Z,14.10
2018-11-03T22:35:55.079Z,13.63
2018-11-03T22:38:23.437Z,15.70
2018-11-03T22:40:51.792Z,14.10
2018-11-03T22:43:20.086Z,13.87
2018-11-03T22:45:48.481Z,13.50
2018-11-03T22:48:16.746Z,16.07
2018-11-03T22:50:45.044Z,16.43
2018-11-03T22:53:13.468Z,14.23
2018-11-03T22:55:42.000Z,14.43
2018-11-03T22:58:10.384Z,14.83
2018-11-03T23:00:44.310Z,14.73
2018-11-03T23:03:12.670Z,15.13
2018-11-03T23:05:40.997Z,14.67
2018-11-03T23:08:09.332Z,15.33
2018-11-03T23:10:37.730Z,16.40
2018-11-03T23:13:06.761Z,15.37
2018-11-03T23:15:35.077Z,15.30
2018-11-03T23:18:03.434Z,15.80
2018-11-03T23:20:31.846Z,16.27
2018-11-03T23:23:00.133Z,15.73
2018-11-03T23:25:28.470Z,16.60
2018-11-03T23:27:56.841Z,16.40
2018-11-03T23:30:25.239Z,15.43
2018-11-03T23:32:53.604Z,17.07
2018-11-03T23:35:22.181Z,17.67
2018-11-03T23:37:50.499Z,17.13
2018-11-03T23:40:18.908Z,16.30
2018-11-03T23:42:47.242Z,16.67
2018-11-03T23:45:15.654Z,16.83
2018-11-03T23:47:44.018Z,16.40
2018-11-03T23:50:13.532Z,17.20
2018-11-03T23:52:44.927Z,17.33
2018-11-03T23:55:13.281Z,16.93
2018-11-03T23:57:41.541Z,16.20
